METAR Data
IDs: Format: Raw Decoded Include TAF

Data at: 0614 UTC 24 Sep 2020

KBUF 240554Z 21006KT 10SM BKN250 16/13 A2995 RMK AO2 SLP140 T01560133 10194 20156 58002

KBUF 240533Z 2406/2506 22004KT P6SM BKN250
  FM241600 24009KT P6SM BKN250
  FM241800 24010KT P6SM BKN040
  FM242300 22007KT P6SM FEW250